sensor_id;sensor_type;location;lat;lon;timestamp;P1;durP1;ratioP1;P2;durP2;ratioP2
20118;SDS011;10220;42.716;23.306;2024-02-26T00:01:56;7.63;;;7.13;;
20118;SDS011;10220;42.716;23.306;2024-02-26T00:04:22;4.22;;;4.03;;
20118;SDS011;10220;42.716;23.306;2024-02-26T00:06:47;3.72;;;3.53;;
20118;SDS011;10220;42.716;23.306;2024-02-26T00:09:15;8.68;;;7.03;;
20118;SDS011;10220;42.716;23.306;2024-02-26T00:11:41;8.90;;;8.25;;
20118;SDS011;10220;42.716;23.306;2024-02-26T00:14:06;5.40;;;4.97;;
20118;SDS011;10220;42.716;23.306;2024-02-26T00:16:32;7.15;;;6.72;;
20118;SDS011;10220;42.716;23.306;2024-02-26T00:18:57;2.55;;;2.45;;
20118;SDS011;10220;42.716;23.306;2024-02-26T00:21:23;6.72;;;3.83;;
20118;SDS011;10220;42.716;23.306;2024-02-26T00:23:49;2.45;;;2.35;;
20118;SDS011;10220;42.716;23.306;2024-02-26T00:26:15;7.40;;;6.68;;
20118;SDS011;10220;42.716;23.306;2024-02-26T00:28:41;9.10;;;8.60;;
20118;SDS011;10220;42.716;23.306;2024-02-26T00:31:06;10.43;;;9.10;;
20118;SDS011;10220;42.716;23.306;2024-02-26T00:33:32;9.45;;;8.73;;
20118;SDS011;10220;42.716;23.306;2024-02-26T00:35:58;9.77;;;9.00;;
20118;SDS011;10220;42.716;23.306;2024-02-26T00:38:23;5.50;;;5.07;;
20118;SDS011;10220;42.716;23.306;2024-02-26T00:40:48;5.47;;;5.15;;
20118;SDS011;10220;42.716;23.306;2024-02-26T00:43:14;3.58;;;3.38;;
20118;SDS011;10220;42.716;23.306;2024-02-26T00:45:39;2.22;;;1.67;;
20118;SDS011;10220;42.716;23.306;2024-02-26T00:48:05;1.85;;;1.77;;
20118;SDS011;10220;42.716;23.306;2024-02-26T00:50:32;2.00;;;1.90;;
20118;SDS011;10220;42.716;23.306;2024-02-26T00:52:58;1.42;;;1.33;;
20118;SDS011;10220;42.716;23.306;2024-02-26T00:55:24;1.13;;;1.10;;
20118;SDS011;10220;42.716;23.306;2024-02-26T00:57:49;4.20;;;3.90;;
20118;SDS011;10220;42.716;23.306;2024-02-26T01:00:15;1.83;;;1.73;;
20118;SDS011;10220;42.716;23.306;2024-02-26T01:02:41;8.00;;;3.25;;
20118;SDS011;10220;42.716;23.306;2024-02-26T01:05:07;3.67;;;3.25;;
20118;SDS011;10220;42.716;23.306;2024-02-26T01:07:36;1.02;;;1.02;;
20118;SDS011;10220;42.716;23.306;2024-02-26T01:10:02;9.38;;;2.92;;
20118;SDS011;10220;42.716;23.306;2024-02-26T01:12:28;1.88;;;1.77;;
20118;SDS011;10220;42.716;23.306;2024-02-26T01:14:54;2.42;;;2.33;;
20118;SDS011;10220;42.716;23.306;2024-02-26T01:17:19;0.20;;;0.20;;
20118;SDS011;10220;42.716;23.306;2024-02-26T01:19:44;1.92;;;1.83;;
20118;SDS011;10220;42.716;23.306;2024-02-26T01:22:10;0.32;;;0.32;;
20118;SDS011;10220;42.716;23.306;2024-02-26T01:24:35;5.65;;;5.18;;
20118;SDS011;10220;42.716;23.306;2024-02-26T01:27:01;2.72;;;1.85;;
20118;SDS011;10220;42.716;23.306;2024-02-26T01:29:27;4.90;;;4.45;;
20118;SDS011;10220;42.716;23.306;2024-02-26T01:31:52;2.00;;;1.90;;
20118;SDS011;10220;42.716;23.306;2024-02-26T01:34:20;0.93;;;0.93;;
20118;SDS011;10220;42.716;23.306;2024-02-26T01:36:46;1.20;;;1.20;;
20118;SDS011;10220;42.716;23.306;2024-02-26T01:39:11;1.35;;;1.35;;
20118;SDS011;10220;42.716;23.306;2024-02-26T01:41:38;0.80;;;0.80;;
20118;SDS011;10220;42.716;23.306;2024-02-26T01:44:04;1.35;;;1.00;;
20118;SDS011;10220;42.716;23.306;2024-02-26T01:46:29;2.60;;;2.40;;
20118;SDS011;10220;42.716;23.306;2024-02-26T01:48:58;2.75;;;2.03;;
20118;SDS011;10220;42.716;23.306;2024-02-26T01:51:24;1.05;;;1.05;;
20118;SDS011;10220;42.716;23.306;2024-02-26T01:53:50;0.82;;;0.80;;
20118;SDS011;10220;42.716;23.306;2024-02-26T01:56:16;1.45;;;1.45;;
20118;SDS011;10220;42.716;23.306;2024-02-26T01:58:43;2.05;;;1.95;;
20118;SDS011;10220;42.716;23.306;2024-02-26T02:01:09;1.00;;;1.00;;
20118;SDS011;10220;42.716;23.306;2024-02-26T02:03:35;2.58;;;1.95;;
20118;SDS011;10220;42.716;23.306;2024-02-26T02:06:01;0.30;;;0.30;;
20118;SDS011;10220;42.716;23.306;2024-02-26T02:08:28;0.90;;;0.90;;
20118;SDS011;10220;42.716;23.306;2024-02-26T02:10:54;0.57;;;0.57;;
20118;SDS011;10220;42.716;23.306;2024-02-26T02:13:21;1.05;;;1.02;;
20118;SDS011;10220;42.716;23.306;2024-02-26T02:15:46;0.68;;;0.68;;
20118;SDS011;10220;42.716;23.306;2024-02-26T02:18:15;1.52;;;1.45;;
20118;SDS011;10220;42.716;23.306;2024-02-26T02:24:39;0.20;;;0.20;;
20118;SDS011;10220;42.716;23.306;2024-02-26T02:27:05;2.78;;;1.98;;
20118;SDS011;10220;42.716;23.306;2024-02-26T02:29:31;0.95;;;0.95;;
20118;SDS011;10220;42.716;23.306;2024-02-26T02:31:56;1.73;;;1.63;;
20118;SDS011;10220;42.716;23.306;2024-02-26T02:34:23;1.30;;;1.20;;
20118;SDS011;10220;42.716;23.306;2024-02-26T02:36:52;5.93;;;3.50;;
20118;SDS011;10220;42.716;23.306;2024-02-26T02:39:18;1.85;;;1.75;;
20118;SDS011;10220;42.716;23.306;2024-02-26T02:41:43;0.50;;;0.50;;
20118;SDS011;10220;42.716;23.306;2024-02-26T02:44:09;0.43;;;0.40;;
20118;SDS011;10220;42.716;23.306;2024-02-26T02:46:34;1.48;;;1.38;;
20118;SDS011;10220;42.716;23.306;2024-02-26T02:49:00;0.75;;;0.75;;
20118;SDS011;10220;42.716;23.306;2024-02-26T02:51:26;5.07;;;1.38;;
20118;SDS011;10220;42.716;23.306;2024-02-26T02:53:52;0.73;;;0.73;;
20118;SDS011;10220;42.716;23.306;2024-02-26T02:56:17;0.93;;;0.93;;
20118;SDS011;10220;42.716;23.306;2024-02-26T02:58:43;0.35;;;0.35;;
20118;SDS011;10220;42.716;23.306;2024-02-26T03:01:08;0.08;;;0.08;;
20118;SDS011;10220;42.716;23.306;2024-02-26T03:03:34;1.15;;;1.15;;
20118;SDS011;10220;42.716;23.306;2024-02-26T03:06:01;1.65;;;1.58;;
20118;SDS011;10220;42.716;23.306;2024-02-26T03:08:27;0.93;;;0.68;;
20118;SDS011;10220;42.716;23.306;2024-02-26T03:10:53;0.98;;;0.93;;
20118;SDS011;10220;42.716;23.306;2024-02-26T03:13:18;1.42;;;1.42;;
20118;SDS011;10220;42.716;23.306;2024-02-26T03:15:44;5.30;;;4.05;;
20118;SDS011;10220;42.716;23.306;2024-02-26T03:18:09;0.65;;;0.65;;
20118;SDS011;10220;42.716;23.306;2024-02-26T03:20:35;1.17;;;1.17;;
20118;SDS011;10220;42.716;23.306;2024-02-26T03:23:00;0.40;;;0.40;;
20118;SDS011;10220;42.716;23.306;2024-02-26T03:25:26;0.35;;;0.35;;
20118;SDS011;10220;42.716;23.306;2024-02-26T03:27:51;2.05;;;2.00;;
20118;SDS011;10220;42.716;23.306;2024-02-26T03:30:16;1.95;;;1.83;;
20118;SDS011;10220;42.716;23.306;2024-02-26T03:32:42;0.52;;;0.52;;
20118;SDS011;10220;42.716;23.306;2024-02-26T03:35:08;4.75;;;2.63;;
20118;SDS011;10220;42.716;23.306;2024-02-26T03:37:33;0.85;;;0.85;;
20118;SDS011;10220;42.716;23.306;2024-02-26T03:39:59;0.93;;;0.93;;
20118;SDS011;10220;42.716;23.306;2024-02-26T03:42:26;0.52;;;0.52;;
20118;SDS011;10220;42.716;23.306;2024-02-26T03:44:51;1.58;;;1.48;;
20118;SDS011;10220;42.716;23.306;2024-02-26T03:47:18;2.17;;;2.08;;
20118;SDS011;10220;42.716;23.306;2024-02-26T03:49:43;0.95;;;0.95;;
20118;SDS011;10220;42.716;23.306;2024-02-26T03:52:09;2.80;;;1.85;;
20118;SDS011;10220;42.716;23.306;2024-02-26T03:54:35;0.20;;;0.20;;
20118;SDS011;10220;42.716;23.306;2024-02-26T03:57:00;3.40;;;2.58;;
20118;SDS011;10220;42.716;23.306;2024-02-26T03:59:26;0.30;;;0.30;;
20118;SDS011;10220;42.716;23.306;2024-02-26T04:01:51;0.40;;;0.40;;
20118;SDS011;10220;42.716;23.306;2024-02-26T04:04:17;0.82;;;0.82;;
20118;SDS011;10220;42.716;23.306;2024-02-26T04:06:46;1.88;;;1.85;;
20118;SDS011;10220;42.716;23.306;2024-02-26T04:09:13;2.63;;;2.10;;
20118;SDS011;10220;42.716;23.306;2024-02-26T04:11:39;0.82;;;0.82;;
20118;SDS011;10220;42.716;23.306;2024-02-26T04:14:05;2.45;;;2.13;;
20118;SDS011;10220;42.716;23.306;2024-02-26T04:16:33;1.35;;;1.33;;
20118;SDS011;10220;42.716;23.306;2024-02-26T04:19:00;0.98;;;0.98;;
20118;SDS011;10220;42.716;23.306;2024-02-26T04:21:25;1.58;;;1.48;;
20118;SDS011;10220;42.716;23.306;2024-02-26T04:23:51;3.42;;;1.65;;
20118;SDS011;10220;42.716;23.306;2024-02-26T04:26:20;0.65;;;0.65;;
20118;SDS011;10220;42.716;23.306;2024-02-26T04:28:46;0.65;;;0.65;;
20118;SDS011;10220;42.716;23.306;2024-02-26T04:31:11;2.25;;;1.65;;
20118;SDS011;10220;42.716;23.306;2024-02-26T04:33:37;0.10;;;0.10;;
20118;SDS011;10220;42.716;23.306;2024-02-26T04:36:03;1.80;;;1.73;;
20118;SDS011;10220;42.716;23.306;2024-02-26T04:38:29;1.58;;;1.55;;
20118;SDS011;10220;42.716;23.306;2024-02-26T04:40:54;1.27;;;1.25;;
20118;SDS011;10220;42.716;23.306;2024-02-26T04:43:20;1.38;;;1.27;;
20118;SDS011;10220;42.716;23.306;2024-02-26T04:45:45;2.45;;;2.35;;
20118;SDS011;10220;42.716;23.306;2024-02-26T04:48:11;5.47;;;2.35;;
20118;SDS011;10220;42.716;23.306;2024-02-26T04:50:36;1.15;;;1.13;;
20118;SDS011;10220;42.716;23.306;2024-02-26T04:53:02;1.38;;;1.27;;
20118;SDS011;10220;42.716;23.306;2024-02-26T04:55:27;1.75;;;1.65;;
20118;SDS011;10220;42.716;23.306;2024-02-26T04:57:53;3.33;;;2.95;;
20118;SDS011;10220;42.716;23.306;2024-02-26T05:00:18;0.80;;;0.80;;
20118;SDS011;10220;42.716;23.306;2024-02-26T05:02:43;0.28;;;0.28;;
20118;SDS011;10220;42.716;23.306;2024-02-26T05:05:09;2.17;;;2.08;;
20118;SDS011;10220;42.716;23.306;2024-02-26T05:07:39;1.65;;;1.55;;
20118;SDS011;10220;42.716;23.306;2024-02-26T05:10:06;1.52;;;1.45;;
20118;SDS011;10220;42.716;23.306;2024-02-26T05:12:32;0.82;;;0.82;;
20118;SDS011;10220;42.716;23.306;2024-02-26T05:15:00;1.75;;;1.65;;
20118;SDS011;10220;42.716;23.306;2024-02-26T05:17:25;3.40;;;3.10;;
20118;SDS011;10220;42.716;23.306;2024-02-26T05:19:51;1.13;;;1.13;;
20118;SDS011;10220;42.716;23.306;2024-02-26T05:22:16;1.33;;;1.23;;
20118;SDS011;10220;42.716;23.306;2024-02-26T05:24:42;4.85;;;2.47;;
20118;SDS011;10220;42.716;23.306;2024-02-26T05:27:08;2.50;;;2.40;;
20118;SDS011;10220;42.716;23.306;2024-02-26T05:29:33;4.68;;;4.38;;
20118;SDS011;10220;42.716;23.306;2024-02-26T05:31:59;0.95;;;0.95;;
20118;SDS011;10220;42.716;23.306;2024-02-26T05:34:24;0.77;;;0.77;;
20118;SDS011;10220;42.716;23.306;2024-02-26T05:36:50;0.15;;;0.15;;
20118;SDS011;10220;42.716;23.306;2024-02-26T05:39:15;0.50;;;0.50;;
20118;SDS011;10220;42.716;23.306;2024-02-26T05:41:41;1.95;;;1.85;;
20118;SDS011;10220;42.716;23.306;2024-02-26T05:44:08;0.75;;;0.75;;
20118;SDS011;10220;42.716;23.306;2024-02-26T05:46:35;2.10;;;2.00;;
20118;SDS011;10220;42.716;23.306;2024-02-26T05:49:00;2.20;;;2.10;;
20118;SDS011;10220;42.716;23.306;2024-02-26T05:51:26;1.58;;;1.58;;
20118;SDS011;10220;42.716;23.306;2024-02-26T05:53:51;2.15;;;2.08;;
20118;SDS011;10220;42.716;23.306;2024-02-26T05:56:20;0.73;;;0.73;;
20118;SDS011;10220;42.716;23.306;2024-02-26T05:58:49;3.30;;;3.08;;
20118;SDS011;10220;42.716;23.306;2024-02-26T06:01:15;4.68;;;2.30;;
20118;SDS011;10220;42.716;23.306;2024-02-26T06:03:42;5.70;;;2.65;;
20118;SDS011;10220;42.716;23.306;2024-02-26T06:06:07;1.27;;;1.23;;
20118;SDS011;10220;42.716;23.306;2024-02-26T06:08:33;2.08;;;1.98;;
20118;SDS011;10220;42.716;23.306;2024-02-26T06:10:58;1.33;;;1.30;;
20118;SDS011;10220;42.716;23.306;2024-02-26T06:13:33;1.98;;;1.85;;
20118;SDS011;10220;42.716;23.306;2024-02-26T06:15:59;1.77;;;1.27;;
20118;SDS011;10220;42.716;23.306;2024-02-26T06:18:25;2.88;;;1.70;;
20118;SDS011;10220;42.716;23.306;2024-02-26T06:20:51;1.15;;;0.68;;
20118;SDS011;10220;42.716;23.306;2024-02-26T06:23:22;1.42;;;1.35;;
20118;SDS011;10220;42.716;23.306;2024-02-26T06:25:48;4.97;;;4.45;;
20118;SDS011;10220;42.716;23.306;2024-02-26T06:28:13;8.80;;;4.00;;
20118;SDS011;10220;42.716;23.306;2024-02-26T06:30:39;2.53;;;2.20;;
20118;SDS011;10220;42.716;23.306;2024-02-26T06:33:04;2.55;;;2.35;;
20118;SDS011;10220;42.716;23.306;2024-02-26T06:35:30;3.83;;;3.28;;
20118;SDS011;10220;42.716;23.306;2024-02-26T06:37:55;1.88;;;1.77;;
20118;SDS011;10220;42.716;23.306;2024-02-26T06:40:21;1.90;;;1.80;;
20118;SDS011;10220;42.716;23.306;2024-02-26T06:42:47;4.18;;;3.78;;
20118;SDS011;10220;42.716;23.306;2024-02-26T06:45:12;0.47;;;0.47;;
20118;SDS011;10220;42.716;23.306;2024-02-26T06:47:38;1.95;;;1.80;;
20118;SDS011;10220;42.716;23.306;2024-02-26T06:50:03;0.88;;;0.88;;
20118;SDS011;10220;42.716;23.306;2024-02-26T06:52:29;2.30;;;2.20;;
20118;SDS011;10220;42.716;23.306;2024-02-26T06:55:13;10.32;;;6.80;;
20118;SDS011;10220;42.716;23.306;2024-02-26T06:58:10;3.58;;;3.38;;
20118;SDS011;10220;42.716;23.306;2024-02-26T07:03:49;2.70;;;2.60;;
20118;SDS011;10220;42.716;23.306;2024-02-26T07:09:41;3.65;;;2.67;;
20118;SDS011;10220;42.716;23.306;2024-02-26T07:35:13;0.20;;;0.20;;
20118;SDS011;10220;42.716;23.306;2024-02-26T08:08:53;2.53;;;2.35;;
20118;SDS011;10220;42.716;23.306;2024-02-26T08:11:18;2.67;;;2.47;;
20118;SDS011;10220;42.716;23.306;2024-02-26T08:13:44;1.15;;;1.15;;
20118;SDS011;10220;42.716;23.306;2024-02-26T08:16:09;0.47;;;0.47;;
20118;SDS011;10220;42.716;23.306;2024-02-26T08:18:35;0.28;;;0.28;;
20118;SDS011;10220;42.716;23.306;2024-02-26T08:21:12;3.58;;;3.28;;
20118;SDS011;10220;42.716;23.306;2024-02-26T08:23:47;3.50;;;2.53;;
20118;SDS011;10220;42.716;23.306;2024-02-26T08:26:12;5.57;;;3.45;;
20118;SDS011;10220;42.716;23.306;2024-02-26T08:28:38;2.55;;;2.38;;
20118;SDS011;10220;42.716;23.306;2024-02-26T08:31:10;1.33;;;1.27;;
20118;SDS011;10220;42.716;23.306;2024-02-26T08:33:35;3.17;;;2.90;;
20118;SDS011;10220;42.716;23.306;2024-02-26T08:36:04;0.47;;;0.47;;
20118;SDS011;10220;42.716;23.306;2024-02-26T08:38:30;0.77;;;0.75;;
20118;SDS011;10220;42.716;23.306;2024-02-26T08:40:56;4.57;;;3.05;;
20118;SDS011;10220;42.716;23.306;2024-02-26T08:43:21;2.05;;;1.95;;
20118;SDS011;10220;42.716;23.306;2024-02-26T08:45:47;0.28;;;0.28;;
20118;SDS011;10220;42.716;23.306;2024-02-26T08:48:12;2.00;;;1.90;;
20118;SDS011;10220;42.716;23.306;2024-02-26T08:50:38;0.88;;;0.85;;
20118;SDS011;10220;42.716;23.306;2024-02-26T08:53:03;3.67;;;3.33;;
20118;SDS011;10220;42.716;23.306;2024-02-26T08:55:29;0.10;;;0.10;;
20118;SDS011;10220;42.716;23.306;2024-02-26T08:58:01;2.95;;;2.75;;
20118;SDS011;10220;42.716;23.306;2024-02-26T09:00:26;5.22;;;4.18;;
20118;SDS011;10220;42.716;23.306;2024-02-26T09:02:52;1.98;;;1.85;;
20118;SDS011;10220;42.716;23.306;2024-02-26T09:05:17;5.63;;;4.07;;
20118;SDS011;10220;42.716;23.306;2024-02-26T09:07:43;1.08;;;1.08;;
20118;SDS011;10220;42.716;23.306;2024-02-26T09:10:09;2.90;;;2.72;;
20118;SDS011;10220;42.716;23.306;2024-02-26T09:12:35;1.17;;;1.17;;
20118;SDS011;10220;42.716;23.306;2024-02-26T09:15:02;1.33;;;1.17;;
20118;SDS011;10220;42.716;23.306;2024-02-26T09:17:27;2.45;;;2.33;;
20118;SDS011;10220;42.716;23.306;2024-02-26T09:19:53;0.10;;;0.10;;
20118;SDS011;10220;42.716;23.306;2024-02-26T09:22:18;1.88;;;1.77;;
20118;SDS011;10220;42.716;23.306;2024-02-26T09:24:47;0.65;;;0.65;;
20118;SDS011;10220;42.716;23.306;2024-02-26T09:27:15;1.02;;;1.00;;
20118;SDS011;10220;42.716;23.306;2024-02-26T09:29:41;0.88;;;0.88;;
20118;SDS011;10220;42.716;23.306;2024-02-26T09:32:07;0.65;;;0.65;;
20118;SDS011;10220;42.716;23.306;2024-02-26T09:34:32;0.20;;;0.20;;
20118;SDS011;10220;42.716;23.306;2024-02-26T09:36:58;0.60;;;0.60;;
20118;SDS011;10220;42.716;23.306;2024-02-26T09:39:25;0.43;;;0.43;;
20118;SDS011;10220;42.716;23.306;2024-02-26T09:41:50;0.25;;;0.25;;
20118;SDS011;10220;42.716;23.306;2024-02-26T09:44:20;1.08;;;1.08;;
20118;SDS011;10220;42.716;23.306;2024-02-26T09:46:47;0.20;;;0.20;;
20118;SDS011;10220;42.716;23.306;2024-02-26T09:53:01;0.35;;;0.35;;
20118;SDS011;10220;42.716;23.306;2024-02-26T09:55:39;1.05;;;1.02;;
20118;SDS011;10220;42.716;23.306;2024-02-26T09:58:29;3.88;;;1.48;;
20118;SDS011;10220;42.716;23.306;2024-02-26T10:00:58;0.45;;;0.45;;
20118;SDS011;10220;42.716;23.306;2024-02-26T10:03:51;0.10;;;0.10;;
20118;SDS011;10220;42.716;23.306;2024-02-26T10:15:54;0.25;;;0.25;;
20118;SDS011;10220;42.716;23.306;2024-02-26T10:21:20;0.40;;;0.40;;
20118;SDS011;10220;42.716;23.306;2024-02-26T10:23:46;0.10;;;0.10;;
20118;SDS011;10220;42.716;23.306;2024-02-26T10:26:20;0.45;;;0.45;;
20118;SDS011;10220;42.716;23.306;2024-02-26T10:28:45;0.22;;;0.22;;
20118;SDS011;10220;42.716;23.306;2024-02-26T10:31:13;0.00;;;0.00;;
20118;SDS011;10220;42.716;23.306;2024-02-26T10:33:39;0.55;;;0.55;;
20118;SDS011;10220;42.716;23.306;2024-02-26T10:36:06;0.75;;;0.75;;
20118;SDS011;10220;42.716;23.306;2024-02-26T10:38:35;0.82;;;0.82;;
20118;SDS011;10220;42.716;23.306;2024-02-26T10:41:02;0.22;;;0.22;;
20118;SDS011;10220;42.716;23.306;2024-02-26T10:43:29;1.15;;;1.13;;
20118;SDS011;10220;42.716;23.306;2024-02-26T10:45:57;0.32;;;0.32;;
20118;SDS011;10220;42.716;23.306;2024-02-26T10:48:23;1.35;;;1.35;;
20118;SDS011;10220;42.716;23.306;2024-02-26T10:50:49;0.30;;;0.30;;
20118;SDS011;10220;42.716;23.306;2024-02-26T10:53:26;0.20;;;0.20;;
20118;SDS011;10220;42.716;23.306;2024-02-26T10:56:02;0.52;;;0.52;;
20118;SDS011;10220;42.716;23.306;2024-02-26T10:59:10;0.10;;;0.10;;
20118;SDS011;10220;42.716;23.306;2024-02-26T11:01:36;1.38;;;1.27;;
20118;SDS011;10220;42.716;23.306;2024-02-26T11:04:05;0.30;;;0.30;;
20118;SDS011;10220;42.716;23.306;2024-02-26T11:06:33;0.20;;;0.20;;
20118;SDS011;10220;42.716;23.306;2024-02-26T11:08:59;0.10;;;0.10;;
20118;SDS011;10220;42.716;23.306;2024-02-26T11:11:27;0.10;;;0.10;;
20118;SDS011;10220;42.716;23.306;2024-02-26T11:13:54;0.52;;;0.50;;
20118;SDS011;10220;42.716;23.306;2024-02-26T11:16:22;0.30;;;0.30;;
20118;SDS011;10220;42.716;23.306;2024-02-26T11:18:48;0.30;;;0.30;;
20118;SDS011;10220;42.716;23.306;2024-02-26T11:21:21;0.10;;;0.10;;
20118;SDS011;10220;42.716;23.306;2024-02-26T11:24:00;0.43;;;0.43;;
20118;SDS011;10220;42.716;23.306;2024-02-26T11:26:27;2.28;;;1.88;;
20118;SDS011;10220;42.716;23.306;2024-02-26T11:28:53;1.17;;;1.17;;
20118;SDS011;10220;42.716;23.306;2024-02-26T11:31:19;0.45;;;0.45;;
20118;SDS011;10220;42.716;23.306;2024-02-26T11:33:52;0.00;;;0.00;;
20118;SDS011;10220;42.716;23.306;2024-02-26T11:36:18;0.20;;;0.20;;
20118;SDS011;10220;42.716;23.306;2024-02-26T11:38:44;0.20;;;0.20;;
20118;SDS011;10220;42.716;23.306;2024-02-26T11:41:14;0.57;;;0.45;;
20118;SDS011;10220;42.716;23.306;2024-02-26T11:43:50;0.10;;;0.10;;
20118;SDS011;10220;42.716;23.306;2024-02-26T11:46:30;0.45;;;0.45;;
20118;SDS011;10220;42.716;23.306;2024-02-26T11:48:58;0.22;;;0.22;;
20118;SDS011;10220;42.716;23.306;2024-02-26T11:51:25;0.90;;;0.90;;
20118;SDS011;10220;42.716;23.306;2024-02-26T11:53:52;0.30;;;0.30;;
20118;SDS011;10220;42.716;23.306;2024-02-26T11:59:01;0.20;;;0.20;;
20118;SDS011;10220;42.716;23.306;2024-02-26T12:01:45;0.63;;;0.57;;
20118;SDS011;10220;42.716;23.306;2024-02-26T12:04:19;0.47;;;0.47;;
20118;SDS011;10220;42.716;23.306;2024-02-26T12:06:49;0.10;;;0.10;;
20118;SDS011;10220;42.716;23.306;2024-02-26T12:09:32;1.35;;;1.33;;
20118;SDS011;10220;42.716;23.306;2024-02-26T12:12:06;0.90;;;0.90;;
20118;SDS011;10220;42.716;23.306;2024-02-26T12:14:35;0.20;;;0.20;;
20118;SDS011;10220;42.716;23.306;2024-02-26T12:17:03;0.70;;;0.70;;
20118;SDS011;10220;42.716;23.306;2024-02-26T12:19:35;0.10;;;0.10;;
20118;SDS011;10220;42.716;23.306;2024-02-26T12:22:03;1.17;;;0.93;;
20118;SDS011;10220;42.716;23.306;2024-02-26T12:24:32;1.65;;;1.02;;
20118;SDS011;10220;42.716;23.306;2024-02-26T12:29:48;0.30;;;0.30;;
20118;SDS011;10220;42.716;23.306;2024-02-26T12:32:14;1.27;;;1.17;;
20118;SDS011;10220;42.716;23.306;2024-02-26T12:34:39;0.80;;;0.80;;
20118;SDS011;10220;42.716;23.306;2024-02-26T12:37:05;1.08;;;0.50;;
20118;SDS011;10220;42.716;23.306;2024-02-26T12:39:33;0.77;;;0.40;;
20118;SDS011;10220;42.716;23.306;2024-02-26T12:42:02;0.52;;;0.30;;
20118;SDS011;10220;42.716;23.306;2024-02-26T12:44:28;0.65;;;0.65;;
20118;SDS011;10220;42.716;23.306;2024-02-26T12:47:05;0.10;;;0.10;;
20118;SDS011;10220;42.716;23.306;2024-02-26T12:49:35;0.55;;;0.55;;
20118;SDS011;10220;42.716;23.306;2024-02-26T12:52:01;0.20;;;0.20;;
20118;SDS011;10220;42.716;23.306;2024-02-26T12:54:30;0.10;;;0.10;;
20118;SDS011;10220;42.716;23.306;2024-02-26T12:56:58;0.50;;;0.50;;
20118;SDS011;10220;42.716;23.306;2024-02-26T12:59:25;0.00;;;0.00;;
20118;SDS011;10220;42.716;23.306;2024-02-26T13:01:51;0.10;;;0.10;;
20118;SDS011;10220;42.716;23.306;2024-02-26T13:04:17;0.82;;;0.82;;
20118;SDS011;10220;42.716;23.306;2024-02-26T13:06:43;0.10;;;0.10;;
20118;SDS011;10220;42.716;23.306;2024-02-26T13:09:12;0.10;;;0.10;;
20118;SDS011;10220;42.716;23.306;2024-02-26T13:11:41;1.00;;;0.73;;
20118;SDS011;10220;42.716;23.306;2024-02-26T13:14:07;0.45;;;0.45;;
20118;SDS011;10220;42.716;23.306;2024-02-26T13:16:32;1.00;;;1.00;;
20118;SDS011;10220;42.716;23.306;2024-02-26T13:19:08;0.35;;;0.35;;
20118;SDS011;10220;42.716;23.306;2024-02-26T13:21:36;0.10;;;0.10;;
20118;SDS011;10220;42.716;23.306;2024-02-26T13:24:01;0.68;;;0.68;;
20118;SDS011;10220;42.716;23.306;2024-02-26T13:26:27;0.10;;;0.10;;
20118;SDS011;10220;42.716;23.306;2024-02-26T13:29:02;1.15;;;0.70;;
20118;SDS011;10220;42.716;23.306;2024-02-26T13:31:28;0.10;;;0.10;;
20118;SDS011;10220;42.716;23.306;2024-02-26T13:33:54;0.00;;;0.00;;
20118;SDS011;10220;42.716;23.306;2024-02-26T13:36:21;0.52;;;0.52;;
20118;SDS011;10220;42.716;23.306;2024-02-26T13:38:51;0.20;;;0.20;;
20118;SDS011;10220;42.716;23.306;2024-02-26T13:41:18;0.10;;;0.10;;
20118;SDS011;10220;42.716;23.306;2024-02-26T13:43:46;0.65;;;0.65;;
20118;SDS011;10220;42.716;23.306;2024-02-26T13:49:09;0.98;;;0.98;;
20118;SDS011;10220;42.716;23.306;2024-02-26T13:51:35;2.05;;;0.93;;
20118;SDS011;10220;42.716;23.306;2024-02-26T13:54:02;0.10;;;0.10;;
20118;SDS011;10220;42.716;23.306;2024-02-26T13:56:28;0.10;;;0.10;;
20118;SDS011;10220;42.716;23.306;2024-02-26T13:58:54;0.28;;;0.28;;
20118;SDS011;10220;42.716;23.306;2024-02-26T14:01:19;2.53;;;1.88;;
20118;SDS011;10220;42.716;23.306;2024-02-26T14:03:45;0.08;;;0.08;;
20118;SDS011;10220;42.716;23.306;2024-02-26T14:06:10;0.30;;;0.30;;
20118;SDS011;10220;42.716;23.306;2024-02-26T14:08:36;0.10;;;0.10;;
20118;SDS011;10220;42.716;23.306;2024-02-26T14:11:02;0.13;;;0.13;;
20118;SDS011;10220;42.716;23.306;2024-02-26T14:13:28;0.52;;;0.52;;
20118;SDS011;10220;42.716;23.306;2024-02-26T14:16:03;0.10;;;0.10;;
20118;SDS011;10220;42.716;23.306;2024-02-26T14:18:38;0.20;;;0.20;;
20118;SDS011;10220;42.716;23.306;2024-02-26T14:21:27;0.73;;;0.73;;
20118;SDS011;10220;42.716;23.306;2024-02-26T14:23:57;0.10;;;0.10;;
20118;SDS011;10220;42.716;23.306;2024-02-26T14:26:28;0.10;;;0.10;;
20118;SDS011;10220;42.716;23.306;2024-02-26T14:28:54;0.10;;;0.10;;
20118;SDS011;10220;42.716;23.306;2024-02-26T14:31:22;0.10;;;0.10;;
20118;SDS011;10220;42.716;23.306;2024-02-26T14:33:47;0.50;;;0.50;;
20118;SDS011;10220;42.716;23.306;2024-02-26T14:36:15;0.20;;;0.20;;
20118;SDS011;10220;42.716;23.306;2024-02-26T14:38:40;0.10;;;0.10;;
20118;SDS011;10220;42.716;23.306;2024-02-26T14:41:06;0.00;;;0.00;;
20118;SDS011;10220;42.716;23.306;2024-02-26T14:43:31;0.77;;;0.77;;
20118;SDS011;10220;42.716;23.306;2024-02-26T14:45:57;0.10;;;0.10;;
20118;SDS011;10220;42.716;23.306;2024-02-26T14:48:24;0.10;;;0.10;;
20118;SDS011;10220;42.716;23.306;2024-02-26T14:50:50;0.20;;;0.20;;
20118;SDS011;10220;42.716;23.306;2024-02-26T14:53:16;0.40;;;0.40;;
20118;SDS011;10220;42.716;23.306;2024-02-26T14:55:44;0.30;;;0.30;;
20118;SDS011;10220;42.716;23.306;2024-02-26T14:58:12;0.10;;;0.10;;
20118;SDS011;10220;42.716;23.306;2024-02-26T15:00:38;0.10;;;0.10;;
20118;SDS011;10220;42.716;23.306;2024-02-26T15:03:21;0.22;;;0.22;;
20118;SDS011;10220;42.716;23.306;2024-02-26T15:05:47;0.30;;;0.30;;
20118;SDS011;10220;42.716;23.306;2024-02-26T15:08:12;1.05;;;1.05;;
20118;SDS011;10220;42.716;23.306;2024-02-26T15:10:40;0.20;;;0.20;;
20118;SDS011;10220;42.716;23.306;2024-02-26T15:13:12;0.30;;;0.30;;
20118;SDS011;10220;42.716;23.306;2024-02-26T15:15:37;0.10;;;0.10;;
20118;SDS011;10220;42.716;23.306;2024-02-26T15:18:04;0.15;;;0.15;;
20118;SDS011;10220;42.716;23.306;2024-02-26T15:20:29;0.10;;;0.10;;
20118;SDS011;10220;42.716;23.306;2024-02-26T15:22:55;0.20;;;0.20;;
20118;SDS011;10220;42.716;23.306;2024-02-26T15:25:21;1.27;;;1.17;;
20118;SDS011;10220;42.716;23.306;2024-02-26T15:27:46;0.00;;;0.00;;
20118;SDS011;10220;42.716;23.306;2024-02-26T15:30:12;0.30;;;0.30;;
20118;SDS011;10220;42.716;23.306;2024-02-26T15:32:37;0.10;;;0.10;;
20118;SDS011;10220;42.716;23.306;2024-02-26T15:35:12;0.88;;;0.88;;
20118;SDS011;10220;42.716;23.306;2024-02-26T15:38:04;0.20;;;0.20;;
20118;SDS011;10220;42.716;23.306;2024-02-26T15:40:29;0.10;;;0.10;;
20118;SDS011;10220;42.716;23.306;2024-02-26T15:42:55;0.10;;;0.10;;
20118;SDS011;10220;42.716;23.306;2024-02-26T15:45:20;0.20;;;0.20;;
20118;SDS011;10220;42.716;23.306;2024-02-26T15:47:46;0.10;;;0.10;;
20118;SDS011;10220;42.716;23.306;2024-02-26T15:50:12;0.10;;;0.10;;
20118;SDS011;10220;42.716;23.306;2024-02-26T15:52:38;0.25;;;0.25;;
20118;SDS011;10220;42.716;23.306;2024-02-26T15:55:04;0.10;;;0.10;;
20118;SDS011;10220;42.716;23.306;2024-02-26T15:57:30;0.10;;;0.10;;
20118;SDS011;10220;42.716;23.306;2024-02-26T15:59:56;0.35;;;0.35;;
20118;SDS011;10220;42.716;23.306;2024-02-26T16:02:25;0.15;;;0.15;;
20118;SDS011;10220;42.716;23.306;2024-02-26T16:04:51;1.00;;;1.00;;